sensor_id;sensor_type;location;lat;lon;timestamp;P1;durP1;ratioP1;P2;durP2;ratioP2
3939;SDS011;1984;48.312;9.244;2023-04-25T00:02:11;2.50;;;2.30;;
3939;SDS011;1984;48.312;9.244;2023-04-25T00:04:37;2.97;;;2.50;;
3939;SDS011;1984;48.312;9.244;2023-04-25T00:07:02;5.40;;;2.47;;
3939;SDS011;1984;48.312;9.244;2023-04-25T00:09:28;3.10;;;1.80;;
3939;SDS011;1984;48.312;9.244;2023-04-25T00:11:54;2.20;;;2.10;;
3939;SDS011;1984;48.312;9.244;2023-04-25T00:14:20;3.50;;;2.10;;
3939;SDS011;1984;48.312;9.244;2023-04-25T00:16:45;2.80;;;2.20;;
3939;SDS011;1984;48.312;9.244;2023-04-25T00:19:11;1.93;;;1.83;;
3939;SDS011;1984;48.312;9.244;2023-04-25T00:21:37;5.93;;;1.50;;
3939;SDS011;1984;48.312;9.244;2023-04-25T00:24:05;4.40;;;1.90;;
3939;SDS011;1984;48.312;9.244;2023-04-25T00:26:33;4.73;;;2.43;;
3939;SDS011;1984;48.312;9.244;2023-04-25T00:29:00;5.10;;;2.00;;
3939;SDS011;1984;48.312;9.244;2023-04-25T00:31:26;4.67;;;2.40;;
3939;SDS011;1984;48.312;9.244;2023-04-25T00:33:53;2.20;;;2.10;;
3939;SDS011;1984;48.312;9.244;2023-04-25T00:36:19;2.17;;;1.97;;
3939;SDS011;1984;48.312;9.244;2023-04-25T00:38:45;4.13;;;1.90;;
3939;SDS011;1984;48.312;9.244;2023-04-25T00:41:10;5.63;;;1.90;;
3939;SDS011;1984;48.312;9.244;2023-04-25T00:43:37;5.73;;;2.93;;
3939;SDS011;1984;48.312;9.244;2023-04-25T00:46:04;6.50;;;2.00;;
3939;SDS011;1984;48.312;9.244;2023-04-25T00:48:30;1.77;;;1.60;;
3939;SDS011;1984;48.312;9.244;2023-04-25T00:50:58;3.23;;;2.10;;
3939;SDS011;1984;48.312;9.244;2023-04-25T00:53:25;4.03;;;2.30;;
3939;SDS011;1984;48.312;9.244;2023-04-25T00:55:52;1.93;;;1.83;;
3939;SDS011;1984;48.312;9.244;2023-04-25T00:58:18;5.40;;;2.27;;
3939;SDS011;1984;48.312;9.244;2023-04-25T01:00:48;5.27;;;2.50;;
3939;SDS011;1984;48.312;9.244;2023-04-25T01:03:15;2.00;;;1.90;;
3939;SDS011;1984;48.312;9.244;2023-04-25T01:05:42;2.30;;;2.10;;
3939;SDS011;1984;48.312;9.244;2023-04-25T01:08:08;3.27;;;2.00;;
3939;SDS011;1984;48.312;9.244;2023-04-25T01:10:34;2.23;;;2.00;;
3939;SDS011;1984;48.312;9.244;2023-04-25T01:13:00;5.03;;;2.10;;
3939;SDS011;1984;48.312;9.244;2023-04-25T01:15:26;3.93;;;2.03;;
3939;SDS011;1984;48.312;9.244;2023-04-25T01:17:51;4.10;;;2.73;;
3939;SDS011;1984;48.312;9.244;2023-04-25T01:20:18;3.40;;;2.57;;
3939;SDS011;1984;48.312;9.244;2023-04-25T01:22:47;2.00;;;1.90;;
3939;SDS011;1984;48.312;9.244;2023-04-25T01:25:14;1.53;;;1.43;;
3939;SDS011;1984;48.312;9.244;2023-04-25T01:27:40;2.07;;;1.97;;
3939;SDS011;1984;48.312;9.244;2023-04-25T01:30:06;3.30;;;2.20;;
3939;SDS011;1984;48.312;9.244;2023-04-25T01:32:32;10.33;;;2.10;;
3939;SDS011;1984;48.312;9.244;2023-04-25T01:35:04;2.90;;;2.53;;
3939;SDS011;1984;48.312;9.244;2023-04-25T01:37:34;6.27;;;1.90;;
3939;SDS011;1984;48.312;9.244;2023-04-25T01:40:01;2.50;;;2.30;;
3939;SDS011;1984;48.312;9.244;2023-04-25T01:42:27;3.10;;;2.07;;
3939;SDS011;1984;48.312;9.244;2023-04-25T01:44:52;9.80;;;2.43;;
3939;SDS011;1984;48.312;9.244;2023-04-25T01:47:18;5.83;;;3.03;;
3939;SDS011;1984;48.312;9.244;2023-04-25T01:49:43;2.53;;;2.33;;
3939;SDS011;1984;48.312;9.244;2023-04-25T01:52:09;3.77;;;2.07;;
3939;SDS011;1984;48.312;9.244;2023-04-25T01:54:35;2.77;;;2.47;;
3939;SDS011;1984;48.312;9.244;2023-04-25T01:57:00;2.23;;;2.00;;
3939;SDS011;1984;48.312;9.244;2023-04-25T01:59:26;2.00;;;1.90;;
3939;SDS011;1984;48.312;9.244;2023-04-25T02:01:52;6.53;;;2.10;;
3939;SDS011;1984;48.312;9.244;2023-04-25T02:04:17;6.10;;;2.73;;
3939;SDS011;1984;48.312;9.244;2023-04-25T02:06:43;3.20;;;2.10;;
3939;SDS011;1984;48.312;9.244;2023-04-25T02:09:08;2.67;;;1.80;;
3939;SDS011;1984;48.312;9.244;2023-04-25T02:11:34;2.93;;;2.73;;
3939;SDS011;1984;48.312;9.244;2023-04-25T02:13:59;1.77;;;1.67;;
3939;SDS011;1984;48.312;9.244;2023-04-25T02:16:25;1.90;;;1.80;;
3939;SDS011;1984;48.312;9.244;2023-04-25T02:18:50;1.63;;;1.53;;
3939;SDS011;1984;48.312;9.244;2023-04-25T02:21:17;2.30;;;1.57;;
3939;SDS011;1984;48.312;9.244;2023-04-25T02:23:43;3.87;;;1.90;;
3939;SDS011;1984;48.312;9.244;2023-04-25T02:26:10;4.53;;;2.13;;
3939;SDS011;1984;48.312;9.244;2023-04-25T02:28:36;12.00;;;2.37;;
3939;SDS011;1984;48.312;9.244;2023-04-25T02:31:01;3.67;;;2.00;;
3939;SDS011;1984;48.312;9.244;2023-04-25T02:33:27;6.23;;;2.23;;
3939;SDS011;1984;48.312;9.244;2023-04-25T02:35:53;4.93;;;2.27;;
3939;SDS011;1984;48.312;9.244;2023-04-25T02:38:18;1.97;;;1.70;;
3939;SDS011;1984;48.312;9.244;2023-04-25T02:40:44;2.33;;;2.03;;
3939;SDS011;1984;48.312;9.244;2023-04-25T02:43:09;2.17;;;2.00;;
3939;SDS011;1984;48.312;9.244;2023-04-25T02:45:35;1.77;;;1.60;;
3939;SDS011;1984;48.312;9.244;2023-04-25T02:48:01;1.90;;;1.80;;
3939;SDS011;1984;48.312;9.244;2023-04-25T02:50:27;2.40;;;1.90;;
3939;SDS011;1984;48.312;9.244;2023-04-25T02:52:53;2.17;;;2.00;;
3939;SDS011;1984;48.312;9.244;2023-04-25T02:55:18;2.03;;;1.93;;
3939;SDS011;1984;48.312;9.244;2023-04-25T02:57:44;2.40;;;2.20;;
3939;SDS011;1984;48.312;9.244;2023-04-25T03:00:10;2.80;;;1.70;;
3939;SDS011;1984;48.312;9.244;2023-04-25T03:02:36;1.63;;;1.53;;
3939;SDS011;1984;48.312;9.244;2023-04-25T03:05:02;12.97;;;2.10;;
3939;SDS011;1984;48.312;9.244;2023-04-25T03:07:28;2.80;;;2.07;;
3939;SDS011;1984;48.312;9.244;2023-04-25T03:09:53;3.27;;;2.03;;
3939;SDS011;1984;48.312;9.244;2023-04-25T03:12:20;5.33;;;2.23;;
3939;SDS011;1984;48.312;9.244;2023-04-25T03:14:45;2.23;;;2.07;;
3939;SDS011;1984;48.312;9.244;2023-04-25T03:17:11;4.93;;;1.97;;
3939;SDS011;1984;48.312;9.244;2023-04-25T03:19:36;5.47;;;2.60;;
3939;SDS011;1984;48.312;9.244;2023-04-25T03:22:02;4.13;;;2.20;;
3939;SDS011;1984;48.312;9.244;2023-04-25T03:24:27;1.83;;;1.73;;
3939;SDS011;1984;48.312;9.244;2023-04-25T03:26:53;2.33;;;2.23;;
3939;SDS011;1984;48.312;9.244;2023-04-25T03:29:19;4.43;;;2.17;;
3939;SDS011;1984;48.312;9.244;2023-04-25T03:31:49;4.00;;;2.30;;
3939;SDS011;1984;48.312;9.244;2023-04-25T03:34:15;3.63;;;2.30;;
3939;SDS011;1984;48.312;9.244;2023-04-25T03:36:40;5.70;;;2.30;;
3939;SDS011;1984;48.312;9.244;2023-04-25T03:39:06;2.57;;;2.20;;
3939;SDS011;1984;48.312;9.244;2023-04-25T03:41:31;3.40;;;2.13;;
3939;SDS011;1984;48.312;9.244;2023-04-25T03:43:57;6.30;;;2.37;;
3939;SDS011;1984;48.312;9.244;2023-04-25T03:46:22;2.50;;;2.30;;
3939;SDS011;1984;48.312;9.244;2023-04-25T03:48:48;1.93;;;1.83;;
3939;SDS011;1984;48.312;9.244;2023-04-25T03:51:13;2.50;;;2.20;;
3939;SDS011;1984;48.312;9.244;2023-04-25T03:53:39;2.17;;;2.07;;
3939;SDS011;1984;48.312;9.244;2023-04-25T03:56:04;2.37;;;2.10;;
3939;SDS011;1984;48.312;9.244;2023-04-25T03:58:30;2.83;;;1.97;;
3939;SDS011;1984;48.312;9.244;2023-04-25T04:00:56;2.23;;;2.00;;
3939;SDS011;1984;48.312;9.244;2023-04-25T04:03:21;4.43;;;2.50;;
3939;SDS011;1984;48.312;9.244;2023-04-25T04:05:47;2.30;;;1.63;;
3939;SDS011;1984;48.312;9.244;2023-04-25T04:08:12;6.83;;;2.67;;
3939;SDS011;1984;48.312;9.244;2023-04-25T04:10:38;2.53;;;1.93;;
3939;SDS011;1984;48.312;9.244;2023-04-25T04:13:03;3.70;;;2.23;;
3939;SDS011;1984;48.312;9.244;2023-04-25T04:15:29;2.80;;;2.37;;
3939;SDS011;1984;48.312;9.244;2023-04-25T04:17:57;2.50;;;2.30;;
3939;SDS011;1984;48.312;9.244;2023-04-25T04:20:27;2.70;;;1.97;;
3939;SDS011;1984;48.312;9.244;2023-04-25T04:22:53;2.07;;;1.87;;
3939;SDS011;1984;48.312;9.244;2023-04-25T04:25:18;2.83;;;2.37;;
3939;SDS011;1984;48.312;9.244;2023-04-25T04:27:44;2.27;;;2.07;;
3939;SDS011;1984;48.312;9.244;2023-04-25T04:30:11;3.03;;;2.27;;
3939;SDS011;1984;48.312;9.244;2023-04-25T04:32:37;3.23;;;2.07;;
3939;SDS011;1984;48.312;9.244;2023-04-25T04:35:03;2.40;;;1.90;;
3939;SDS011;1984;48.312;9.244;2023-04-25T04:37:29;2.80;;;2.40;;
3939;SDS011;1984;48.312;9.244;2023-04-25T04:39:55;2.03;;;1.83;;
3939;SDS011;1984;48.312;9.244;2023-04-25T04:42:21;3.13;;;2.30;;
3939;SDS011;1984;48.312;9.244;2023-04-25T04:44:46;5.67;;;2.03;;
3939;SDS011;1984;48.312;9.244;2023-04-25T04:47:12;2.67;;;2.10;;
3939;SDS011;1984;48.312;9.244;2023-04-25T04:49:39;2.53;;;2.40;;
3939;SDS011;1984;48.312;9.244;2023-04-25T04:52:04;8.20;;;3.07;;
3939;SDS011;1984;48.312;9.244;2023-04-25T04:54:30;9.17;;;3.37;;
3939;SDS011;1984;48.312;9.244;2023-04-25T04:56:56;2.17;;;2.07;;
3939;SDS011;1984;48.312;9.244;2023-04-25T04:59:21;4.90;;;2.13;;
3939;SDS011;1984;48.312;9.244;2023-04-25T05:01:47;3.93;;;2.60;;
3939;SDS011;1984;48.312;9.244;2023-04-25T05:04:12;2.37;;;2.20;;
3939;SDS011;1984;48.312;9.244;2023-04-25T05:06:38;2.20;;;2.00;;
3939;SDS011;1984;48.312;9.244;2023-04-25T05:09:03;2.67;;;2.20;;
3939;SDS011;1984;48.312;9.244;2023-04-25T05:11:29;2.90;;;2.23;;
3939;SDS011;1984;48.312;9.244;2023-04-25T05:13:55;2.60;;;2.40;;
3939;SDS011;1984;48.312;9.244;2023-04-25T05:16:20;2.90;;;2.70;;
3939;SDS011;1984;48.312;9.244;2023-04-25T05:18:47;5.80;;;1.87;;
3939;SDS011;1984;48.312;9.244;2023-04-25T05:21:13;5.00;;;2.60;;
3939;SDS011;1984;48.312;9.244;2023-04-25T05:23:39;1.70;;;1.60;;
3939;SDS011;1984;48.312;9.244;2023-04-25T05:26:04;8.27;;;2.10;;
3939;SDS011;1984;48.312;9.244;2023-04-25T05:28:30;2.90;;;2.30;;
3939;SDS011;1984;48.312;9.244;2023-04-25T05:30:56;6.27;;;2.60;;
3939;SDS011;1984;48.312;9.244;2023-04-25T05:33:21;3.90;;;2.00;;
3939;SDS011;1984;48.312;9.244;2023-04-25T05:35:47;2.07;;;1.97;;
3939;SDS011;1984;48.312;9.244;2023-04-25T05:38:13;2.90;;;2.40;;
3939;SDS011;1984;48.312;9.244;2023-04-25T05:40:38;3.77;;;2.60;;
3939;SDS011;1984;48.312;9.244;2023-04-25T05:43:04;10.80;;;3.00;;
3939;SDS011;1984;48.312;9.244;2023-04-25T05:45:29;5.20;;;3.40;;
3939;SDS011;1984;48.312;9.244;2023-04-25T05:47:55;3.87;;;3.30;;
3939;SDS011;1984;48.312;9.244;2023-04-25T05:50:20;3.50;;;2.60;;
3939;SDS011;1984;48.312;9.244;2023-04-25T05:52:46;3.80;;;3.00;;
3939;SDS011;1984;48.312;9.244;2023-04-25T05:55:11;3.63;;;3.20;;
3939;SDS011;1984;48.312;9.244;2023-04-25T05:57:37;5.90;;;3.10;;
3939;SDS011;1984;48.312;9.244;2023-04-25T06:00:06;7.10;;;3.90;;
3939;SDS011;1984;48.312;9.244;2023-04-25T06:02:34;8.13;;;4.23;;
3939;SDS011;1984;48.312;9.244;2023-04-25T06:04:59;5.17;;;3.30;;
3939;SDS011;1984;48.312;9.244;2023-04-25T06:07:25;5.90;;;3.57;;
3939;SDS011;1984;48.312;9.244;2023-04-25T06:09:50;3.70;;;3.40;;
3939;SDS011;1984;48.312;9.244;2023-04-25T06:12:16;6.57;;;3.90;;
3939;SDS011;1984;48.312;9.244;2023-04-25T06:14:41;5.67;;;3.00;;
3939;SDS011;1984;48.312;9.244;2023-04-25T06:17:07;6.73;;;3.40;;
3939;SDS011;1984;48.312;9.244;2023-04-25T06:19:33;7.77;;;3.83;;
3939;SDS011;1984;48.312;9.244;2023-04-25T06:22:00;5.10;;;4.07;;
3939;SDS011;1984;48.312;9.244;2023-04-25T06:24:26;7.13;;;3.57;;
3939;SDS011;1984;48.312;9.244;2023-04-25T06:26:52;13.00;;;5.13;;
3939;SDS011;1984;48.312;9.244;2023-04-25T06:29:18;2.63;;;2.43;;
3939;SDS011;1984;48.312;9.244;2023-04-25T06:31:43;2.60;;;2.20;;
3939;SDS011;1984;48.312;9.244;2023-04-25T06:34:09;6.20;;;2.00;;
3939;SDS011;1984;48.312;9.244;2023-04-25T06:36:34;3.20;;;2.37;;
3939;SDS011;1984;48.312;9.244;2023-04-25T06:39:00;2.33;;;2.13;;
3939;SDS011;1984;48.312;9.244;2023-04-25T06:41:25;2.50;;;2.40;;
3939;SDS011;1984;48.312;9.244;2023-04-25T06:43:51;2.20;;;2.00;;
3939;SDS011;1984;48.312;9.244;2023-04-25T06:46:16;2.13;;;2.03;;
3939;SDS011;1984;48.312;9.244;2023-04-25T06:48:42;2.90;;;2.70;;
3939;SDS011;1984;48.312;9.244;2023-04-25T06:51:08;6.90;;;2.60;;
3939;SDS011;1984;48.312;9.244;2023-04-25T06:53:33;4.17;;;2.63;;
3939;SDS011;1984;48.312;9.244;2023-04-25T06:55:59;3.43;;;3.07;;
3939;SDS011;1984;48.312;9.244;2023-04-25T06:58:24;2.37;;;2.17;;
3939;SDS011;1984;48.312;9.244;2023-04-25T07:00:51;6.40;;;2.60;;
3939;SDS011;1984;48.312;9.244;2023-04-25T07:03:16;6.80;;;3.30;;
3939;SDS011;1984;48.312;9.244;2023-04-25T07:05:42;3.80;;;2.73;;
3939;SDS011;1984;48.312;9.244;2023-04-25T07:08:07;2.70;;;2.10;;
3939;SDS011;1984;48.312;9.244;2023-04-25T07:10:33;2.20;;;2.00;;
3939;SDS011;1984;48.312;9.244;2023-04-25T07:12:59;3.93;;;2.60;;
3939;SDS011;1984;48.312;9.244;2023-04-25T07:15:24;2.00;;;1.90;;
3939;SDS011;1984;48.312;9.244;2023-04-25T07:20:21;6.37;;;2.47;;
3939;SDS011;1984;48.312;9.244;2023-04-25T07:22:47;3.07;;;2.20;;
3939;SDS011;1984;48.312;9.244;2023-04-25T07:25:12;2.80;;;1.90;;
3939;SDS011;1984;48.312;9.244;2023-04-25T07:27:38;4.27;;;2.47;;
3939;SDS011;1984;48.312;9.244;2023-04-25T07:30:04;3.30;;;1.93;;
3939;SDS011;1984;48.312;9.244;2023-04-25T07:32:30;2.97;;;2.77;;
3939;SDS011;1984;48.312;9.244;2023-04-25T07:34:55;2.50;;;2.30;;
3939;SDS011;1984;48.312;9.244;2023-04-25T07:37:21;2.73;;;2.10;;
3939;SDS011;1984;48.312;9.244;2023-04-25T07:39:47;5.43;;;2.50;;
3939;SDS011;1984;48.312;9.244;2023-04-25T07:42:12;2.60;;;2.40;;
3939;SDS011;1984;48.312;9.244;2023-04-25T07:44:38;2.63;;;2.30;;
3939;SDS011;1984;48.312;9.244;2023-04-25T07:47:05;5.80;;;2.30;;
3939;SDS011;1984;48.312;9.244;2023-04-25T07:49:32;2.57;;;2.13;;
3939;SDS011;1984;48.312;9.244;2023-04-25T07:51:59;4.00;;;2.47;;
3939;SDS011;1984;48.312;9.244;2023-04-25T07:54:25;6.80;;;2.57;;
3939;SDS011;1984;48.312;9.244;2023-04-25T07:56:51;4.30;;;2.13;;
3939;SDS011;1984;48.312;9.244;2023-04-25T07:59:16;3.13;;;2.60;;
3939;SDS011;1984;48.312;9.244;2023-04-25T08:01:42;4.73;;;2.90;;
3939;SDS011;1984;48.312;9.244;2023-04-25T08:04:07;2.30;;;2.10;;
3939;SDS011;1984;48.312;9.244;2023-04-25T08:06:33;3.97;;;2.63;;
3939;SDS011;1984;48.312;9.244;2023-04-25T08:08:58;2.93;;;2.43;;
3939;SDS011;1984;48.312;9.244;2023-04-25T08:11:24;3.00;;;2.47;;
3939;SDS011;1984;48.312;9.244;2023-04-25T08:13:50;4.63;;;2.50;;
3939;SDS011;1984;48.312;9.244;2023-04-25T08:16:15;3.17;;;2.73;;
3939;SDS011;1984;48.312;9.244;2023-04-25T08:18:41;2.87;;;2.67;;
3939;SDS011;1984;48.312;9.244;2023-04-25T08:21:07;3.07;;;2.07;;
3939;SDS011;1984;48.312;9.244;2023-04-25T08:23:33;4.80;;;2.40;;
3939;SDS011;1984;48.312;9.244;2023-04-25T08:25:59;5.90;;;2.40;;
3939;SDS011;1984;48.312;9.244;2023-04-25T08:28:25;7.70;;;2.33;;
3939;SDS011;1984;48.312;9.244;2023-04-25T08:30:50;4.27;;;2.30;;
3939;SDS011;1984;48.312;9.244;2023-04-25T08:33:16;2.43;;;2.23;;
3939;SDS011;1984;48.312;9.244;2023-04-25T08:35:41;2.33;;;1.87;;
3939;SDS011;1984;48.312;9.244;2023-04-25T08:38:07;2.10;;;1.90;;
3939;SDS011;1984;48.312;9.244;2023-04-25T08:40:35;5.73;;;1.90;;
3939;SDS011;1984;48.312;9.244;2023-04-25T08:43:03;7.10;;;2.70;;
3939;SDS011;1984;48.312;9.244;2023-04-25T08:45:36;1.90;;;1.80;;
3939;SDS011;1984;48.312;9.244;2023-04-25T08:48:06;2.43;;;1.70;;
3939;SDS011;1984;48.312;9.244;2023-04-25T08:50:36;6.90;;;2.47;;
3939;SDS011;1984;48.312;9.244;2023-04-25T08:53:04;2.30;;;2.13;;
3939;SDS011;1984;48.312;9.244;2023-04-25T08:55:33;3.93;;;1.90;;
3939;SDS011;1984;48.312;9.244;2023-04-25T08:58:01;3.10;;;2.30;;
3939;SDS011;1984;48.312;9.244;2023-04-25T09:00:26;2.03;;;1.90;;
3939;SDS011;1984;48.312;9.244;2023-04-25T09:02:52;1.50;;;1.40;;
3939;SDS011;1984;48.312;9.244;2023-04-25T09:05:20;1.80;;;1.70;;
3939;SDS011;1984;48.312;9.244;2023-04-25T09:07:45;2.80;;;1.80;;
3939;SDS011;1984;48.312;9.244;2023-04-25T09:10:11;5.63;;;2.90;;
3939;SDS011;1984;48.312;9.244;2023-04-25T09:12:36;4.87;;;2.30;;
3939;SDS011;1984;48.312;9.244;2023-04-25T09:15:06;2.10;;;1.70;;
3939;SDS011;1984;48.312;9.244;2023-04-25T09:17:33;1.43;;;1.33;;
3939;SDS011;1984;48.312;9.244;2023-04-25T09:20:05;1.20;;;1.20;;
3939;SDS011;1984;48.312;9.244;2023-04-25T09:22:40;0.67;;;0.67;;
3939;SDS011;1984;48.312;9.244;2023-04-25T09:25:08;0.80;;;0.80;;
3939;SDS011;1984;48.312;9.244;2023-04-25T09:27:35;0.50;;;0.50;;
3939;SDS011;1984;48.312;9.244;2023-04-25T09:30:01;0.60;;;0.60;;
3939;SDS011;1984;48.312;9.244;2023-04-25T09:32:27;0.70;;;0.70;;
3939;SDS011;1984;48.312;9.244;2023-04-25T09:34:54;0.90;;;0.80;;
3939;SDS011;1984;48.312;9.244;2023-04-25T09:37:21;0.70;;;0.70;;
3939;SDS011;1984;48.312;9.244;2023-04-25T09:39:53;0.70;;;0.70;;
3939;SDS011;1984;48.312;9.244;2023-04-25T09:42:24;0.77;;;0.77;;
3939;SDS011;1984;48.312;9.244;2023-04-25T09:44:51;0.70;;;0.70;;
3939;SDS011;1984;48.312;9.244;2023-04-25T09:47:18;0.90;;;0.90;;
3939;SDS011;1984;48.312;9.244;2023-04-25T09:49:46;0.73;;;0.73;;
3939;SDS011;1984;48.312;9.244;2023-04-25T09:52:15;0.93;;;0.90;;
3939;SDS011;1984;48.312;9.244;2023-04-25T09:54:42;2.57;;;0.70;;
3939;SDS011;1984;48.312;9.244;2023-04-25T09:57:11;0.93;;;0.93;;
3939;SDS011;1984;48.312;9.244;2023-04-25T09:59:39;0.60;;;0.60;;
3939;SDS011;1984;48.312;9.244;2023-04-25T10:02:08;0.50;;;0.50;;
3939;SDS011;1984;48.312;9.244;2023-04-25T10:04:35;0.50;;;0.50;;
3939;SDS011;1984;48.312;9.244;2023-04-25T10:07:03;0.50;;;0.50;;
3939;SDS011;1984;48.312;9.244;2023-04-25T10:09:30;0.40;;;0.40;;
3939;SDS011;1984;48.312;9.244;2023-04-25T10:11:59;0.50;;;0.50;;
3939;SDS011;1984;48.312;9.244;2023-04-25T10:14:24;0.50;;;0.50;;
3939;SDS011;1984;48.312;9.244;2023-04-25T10:16:51;0.40;;;0.40;;
3939;SDS011;1984;48.312;9.244;2023-04-25T10:19:19;0.50;;;0.50;;
3939;SDS011;1984;48.312;9.244;2023-04-25T10:21:49;0.50;;;0.50;;
3939;SDS011;1984;48.312;9.244;2023-04-25T10:24:19;0.50;;;0.50;;
3939;SDS011;1984;48.312;9.244;2023-04-25T10:26:46;0.67;;;0.60;;
3939;SDS011;1984;48.312;9.244;2023-04-25T10:29:12;0.50;;;0.50;;
3939;SDS011;1984;48.312;9.244;2023-04-25T10:31:47;1.23;;;0.60;;
3939;SDS011;1984;48.312;9.244;2023-04-25T10:34:13;0.53;;;0.50;;
3939;SDS011;1984;48.312;9.244;2023-04-25T10:36:38;0.60;;;0.60;;
3939;SDS011;1984;48.312;9.244;2023-04-25T10:39:05;5.70;;;0.57;;
3939;SDS011;1984;48.312;9.244;2023-04-25T10:41:32;0.40;;;0.40;;
3939;SDS011;1984;48.312;9.244;2023-04-25T10:44:11;0.43;;;0.43;;
3939;SDS011;1984;48.312;9.244;2023-04-25T10:46:38;0.50;;;0.50;;
3939;SDS011;1984;48.312;9.244;2023-04-25T10:49:03;0.50;;;0.50;;
3939;SDS011;1984;48.312;9.244;2023-04-25T10:51:30;0.50;;;0.50;;
3939;SDS011;1984;48.312;9.244;2023-04-25T10:56:33;0.60;;;0.60;;
3939;SDS011;1984;48.312;9.244;2023-04-25T11:01:41;0.60;;;0.60;;
3939;SDS011;1984;48.312;9.244;2023-04-25T11:04:22;0.73;;;0.60;;
3939;SDS011;1984;48.312;9.244;2023-04-25T11:09:43;0.50;;;0.50;;
3939;SDS011;1984;48.312;9.244;2023-04-25T11:12:10;0.50;;;0.50;;
3939;SDS011;1984;48.312;9.244;2023-04-25T11:14:39;0.50;;;0.50;;
3939;SDS011;1984;48.312;9.244;2023-04-25T11:17:05;0.40;;;0.40;;
3939;SDS011;1984;48.312;9.244;2023-04-25T11:19:31;0.40;;;0.40;;
3939;SDS011;1984;48.312;9.244;2023-04-25T11:21:57;0.50;;;0.50;;
3939;SDS011;1984;48.312;9.244;2023-04-25T11:24:31;0.60;;;0.60;;
3939;SDS011;1984;48.312;9.244;2023-04-25T11:27:00;0.60;;;0.60;;
3939;SDS011;1984;48.312;9.244;2023-04-25T11:29:31;0.50;;;0.50;;
3939;SDS011;1984;48.312;9.244;2023-04-25T11:31:58;0.50;;;0.50;;
3939;SDS011;1984;48.312;9.244;2023-04-25T11:34:26;0.50;;;0.50;;
3939;SDS011;1984;48.312;9.244;2023-04-25T11:36:52;0.50;;;0.50;;
3939;SDS011;1984;48.312;9.244;2023-04-25T11:39:18;0.40;;;0.40;;
3939;SDS011;1984;48.312;9.244;2023-04-25T11:41:44;0.40;;;0.40;;
3939;SDS011;1984;48.312;9.244;2023-04-25T11:44:11;0.50;;;0.50;;
3939;SDS011;1984;48.312;9.244;2023-04-25T11:46:36;0.83;;;0.53;;
3939;SDS011;1984;48.312;9.244;2023-04-25T11:49:02;0.60;;;0.60;;
3939;SDS011;1984;48.312;9.244;2023-04-25T11:51:29;0.80;;;0.50;;
3939;SDS011;1984;48.312;9.244;2023-04-25T11:53:56;0.40;;;0.40;;
3939;SDS011;1984;48.312;9.244;2023-04-25T11:56:22;0.60;;;0.60;;
3939;SDS011;1984;48.312;9.244;2023-04-25T11:58:54;0.50;;;0.50;;
3939;SDS011;1984;48.312;9.244;2023-04-25T12:01:27;0.60;;;0.60;;
3939;SDS011;1984;48.312;9.244;2023-04-25T12:03:55;0.57;;;0.57;;
3939;SDS011;1984;48.312;9.244;2023-04-25T12:06:21;0.60;;;0.60;;
3939;SDS011;1984;48.312;9.244;2023-04-25T12:11:30;0.50;;;0.50;;
3939;SDS011;1984;48.312;9.244;2023-04-25T12:14:01;0.40;;;0.40;;
3939;SDS011;1984;48.312;9.244;2023-04-25T12:16:28;0.40;;;0.40;;
3939;SDS011;1984;48.312;9.244;2023-04-25T12:18:53;0.50;;;0.50;;
3939;SDS011;1984;48.312;9.244;2023-04-25T12:21:21;0.70;;;0.70;;
3939;SDS011;1984;48.312;9.244;2023-04-25T12:23:46;0.50;;;0.50;;
3939;SDS011;1984;48.312;9.244;2023-04-25T12:26:12;0.50;;;0.50;;
3939;SDS011;1984;48.312;9.244;2023-04-25T12:28:37;0.40;;;0.40;;
3939;SDS011;1984;48.312;9.244;2023-04-25T12:31:03;0.50;;;0.50;;
3939;SDS011;1984;48.312;9.244;2023-04-25T12:33:34;0.50;;;0.50;;
3939;SDS011;1984;48.312;9.244;2023-04-25T12:36:01;0.50;;;0.50;;
3939;SDS011;1984;48.312;9.244;2023-04-25T12:38:38;0.60;;;0.60;;
3939;SDS011;1984;48.312;9.244;2023-04-25T12:41:04;0.50;;;0.50;;
3939;SDS011;1984;48.312;9.244;2023-04-25T12:43:30;0.60;;;0.60;;
3939;SDS011;1984;48.312;9.244;2023-04-25T12:45:55;0.60;;;0.60;;
3939;SDS011;1984;48.312;9.244;2023-04-25T12:48:22;0.90;;;0.80;;
3939;SDS011;1984;48.312;9.244;2023-04-25T12:50:48;0.60;;;0.60;;
3939;SDS011;1984;48.312;9.244;2023-04-25T12:53:14;0.80;;;0.80;;
3939;SDS011;1984;48.312;9.244;2023-04-25T12:55:41;1.37;;;0.80;;
3939;SDS011;1984;48.312;9.244;2023-04-25T12:58:06;0.70;;;0.70;;
3939;SDS011;1984;48.312;9.244;2023-04-25T13:00:32;0.67;;;0.67;;
3939;SDS011;1984;48.312;9.244;2023-04-25T13:02:58;0.90;;;0.90;;
3939;SDS011;1984;48.312;9.244;2023-04-25T13:05:24;0.80;;;0.80;;
3939;SDS011;1984;48.312;9.244;2023-04-25T13:07:50;0.70;;;0.70;;
3939;SDS011;1984;48.312;9.244;2023-04-25T13:10:16;0.77;;;0.77;;
3939;SDS011;1984;48.312;9.244;2023-04-25T13:12:42;0.97;;;0.97;;
3939;SDS011;1984;48.312;9.244;2023-04-25T13:15:08;0.70;;;0.70;;
3939;SDS011;1984;48.312;9.244;2023-04-25T13:17:36;0.80;;;0.80;;
3939;SDS011;1984;48.312;9.244;2023-04-25T13:20:02;0.70;;;0.70;;
3939;SDS011;1984;48.312;9.244;2023-04-25T13:22:31;0.70;;;0.70;;
3939;SDS011;1984;48.312;9.244;2023-04-25T13:24:56;0.70;;;0.70;;
3939;SDS011;1984;48.312;9.244;2023-04-25T13:27:22;0.80;;;0.80;;
3939;SDS011;1984;48.312;9.244;2023-04-25T13:29:47;0.80;;;0.80;;
3939;SDS011;1984;48.312;9.244;2023-04-25T13:32:13;0.97;;;0.97;;
3939;SDS011;1984;48.312;9.244;2023-04-25T13:34:38;0.90;;;0.90;;
3939;SDS011;1984;48.312;9.244;2023-04-25T13:37:04;1.73;;;1.63;;
3939;SDS011;1984;48.312;9.244;2023-04-25T13:39:30;1.70;;;1.60;;
3939;SDS011;1984;48.312;9.244;2023-04-25T13:41:55;1.17;;;1.17;;
3939;SDS011;1984;48.312;9.244;2023-04-25T13:44:21;1.50;;;1.50;;
3939;SDS011;1984;48.312;9.244;2023-04-25T13:46:46;1.20;;;1.20;;
3939;SDS011;1984;48.312;9.244;2023-04-25T13:49:12;0.80;;;0.80;;
3939;SDS011;1984;48.312;9.244;2023-04-25T13:51:37;0.90;;;0.90;;
3939;SDS011;1984;48.312;9.244;2023-04-25T13:54:03;0.80;;;0.80;;
3939;SDS011;1984;48.312;9.244;2023-04-25T13:56:29;0.70;;;0.70;;
3939;SDS011;1984;48.312;9.244;2023-04-25T13:58:55;0.80;;;0.80;;
3939;SDS011;1984;48.312;9.244;2023-04-25T14:01:21;0.80;;;0.80;;
3939;SDS011;1984;48.312;9.244;2023-04-25T14:03:47;4.80;;;3.40;;
3939;SDS011;1984;48.312;9.244;2023-04-25T14:06:12;1.20;;;1.10;;
3939;SDS011;1984;48.312;9.244;2023-04-25T14:08:38;0.80;;;0.80;;
3939;SDS011;1984;48.312;9.244;2023-04-25T14:11:04;1.17;;;1.17;;
3939;SDS011;1984;48.312;9.244;2023-04-25T14:13:30;1.30;;;1.20;;
3939;SDS011;1984;48.312;9.244;2023-04-25T14:15:56;1.43;;;1.33;;
3939;SDS011;1984;48.312;9.244;2023-04-25T14:18:21;1.70;;;1.60;;
3939;SDS011;1984;48.312;9.244;2023-04-25T14:20:47;1.47;;;1.37;;
3939;SDS011;1984;48.312;9.244;2023-04-25T14:23:13;1.50;;;1.40;;
3939;SDS011;1984;48.312;9.244;2023-04-25T14:25:38;1.87;;;1.77;;
3939;SDS011;1984;48.312;9.244;2023-04-25T14:28:05;1.70;;;1.60;;
3939;SDS011;1984;48.312;9.244;2023-04-25T14:30:31;2.40;;;1.37;;
3939;SDS011;1984;48.312;9.244;2023-04-25T14:32:56;1.10;;;1.10;;
3939;SDS011;1984;48.312;9.244;2023-04-25T14:35:22;1.50;;;1.40;;
3939;SDS011;1984;48.312;9.244;2023-04-25T14:37:48;1.80;;;1.47;;
3939;SDS011;1984;48.312;9.244;2023-04-25T14:40:13;2.43;;;1.60;;
3939;SDS011;1984;48.312;9.244;2023-04-25T14:42:40;1.60;;;1.50;;
3939;SDS011;1984;48.312;9.244;2023-04-25T14:45:06;1.57;;;1.47;;
3939;SDS011;1984;48.312;9.244;2023-04-25T14:47:33;1.10;;;1.10;;
3939;SDS011;1984;48.312;9.244;2023-04-25T14:49:59;0.90;;;0.90;;
3939;SDS011;1984;48.312;9.244;2023-04-25T14:52:26;2.80;;;1.57;;
3939;SDS011;1984;48.312;9.244;2023-04-25T14:54:52;1.50;;;1.40;;
3939;SDS011;1984;48.312;9.244;2023-04-25T14:57:17;1.10;;;1.10;;
3939;SDS011;1984;48.312;9.244;2023-04-25T14:59:43;1.00;;;1.00;;
3939;SDS011;1984;48.312;9.244;2023-04-25T15:02:08;1.40;;;1.30;;
3939;SDS011;1984;48.312;9.244;2023-04-25T15:04:34;2.10;;;2.00;;
3939;SDS011;1984;48.312;9.244;2023-04-25T15:06:59;1.60;;;1.50;;
3939;SDS011;1984;48.312;9.244;2023-04-25T15:09:25;1.70;;;1.63;;
3939;SDS011;1984;48.312;9.244;2023-04-25T15:11:51;2.27;;;2.07;;
3939;SDS011;1984;48.312;9.244;2023-04-25T15:14:17;1.97;;;1.87;;
3939;SDS011;1984;48.312;9.244;2023-04-25T15:16:42;1.83;;;1.73;;
3939;SDS011;1984;48.312;9.244;2023-04-25T15:19:08;4.20;;;2.67;;
3939;SDS011;1984;48.312;9.244;2023-04-25T15:21:35;1.90;;;1.80;;
3939;SDS011;1984;48.312;9.244;2023-04-25T15:24:00;1.70;;;1.60;;